sensor_id;sensor_type;location;lat;lon;timestamp;temperature;humidity
44823;DHT22;51097;51.984;5.650;2023-05-10T00:01:42;17.40;99.90
44823;DHT22;51097;51.984;5.650;2023-05-10T00:04:08;17.30;99.90
44823;DHT22;51097;51.984;5.650;2023-05-10T00:06:34;17.30;99.90
44823;DHT22;51097;51.984;5.650;2023-05-10T00:08:59;17.20;99.90
44823;DHT22;51097;51.984;5.650;2023-05-10T00:11:25;17.30;99.90
44823;DHT22;51097;51.984;5.650;2023-05-10T00:13:50;17.30;99.90
44823;DHT22;51097;51.984;5.650;2023-05-10T00:16:16;17.20;99.90
44823;DHT22;51097;51.984;5.650;2023-05-10T00:18:42;17.30;99.90
44823;DHT22;51097;51.984;5.650;2023-05-10T00:21:07;17.30;99.90
44823;DHT22;51097;51.984;5.650;2023-05-10T00:23:33;17.40;99.90
44823;DHT22;51097;51.984;5.650;2023-05-10T00:25:58;17.40;99.90
44823;DHT22;51097;51.984;5.650;2023-05-10T00:28:24;17.30;99.90
44823;DHT22;51097;51.984;5.650;2023-05-10T00:30:49;17.30;99.90
44823;DHT22;51097;51.984;5.650;2023-05-10T00:33:15;17.40;99.90
44823;DHT22;51097;51.984;5.650;2023-05-10T00:35:40;17.30;99.90
44823;DHT22;51097;51.984;5.650;2023-05-10T00:38:06;17.30;99.90
44823;DHT22;51097;51.984;5.650;2023-05-10T00:40:31;17.30;99.90
44823;DHT22;51097;51.984;5.650;2023-05-10T00:42:57;17.40;99.90
44823;DHT22;51097;51.984;5.650;2023-05-10T00:45:24;17.40;99.90
44823;DHT22;51097;51.984;5.650;2023-05-10T00:47:51;17.30;99.90
44823;DHT22;51097;51.984;5.650;2023-05-10T00:50:20;17.30;99.90
44823;DHT22;51097;51.984;5.650;2023-05-10T00:52:46;17.30;99.90
44823;DHT22;51097;51.984;5.650;2023-05-10T00:55:12;17.30;99.90
44823;DHT22;51097;51.984;5.650;2023-05-10T00:57:38;17.30;99.90
44823;DHT22;51097;51.984;5.650;2023-05-10T01:00:04;17.20;99.90
44823;DHT22;51097;51.984;5.650;2023-05-10T01:02:30;17.30;99.90
44823;DHT22;51097;51.984;5.650;2023-05-10T01:04:55;17.30;99.90
44823;DHT22;51097;51.984;5.650;2023-05-10T01:07:23;17.30;99.90
44823;DHT22;51097;51.984;5.650;2023-05-10T01:09:49;17.30;99.90
44823;DHT22;51097;51.984;5.650;2023-05-10T01:12:14;17.30;99.90
44823;DHT22;51097;51.984;5.650;2023-05-10T01:14:40;17.40;99.90
44823;DHT22;51097;51.984;5.650;2023-05-10T01:17:07;17.50;99.90
44823;DHT22;51097;51.984;5.650;2023-05-10T01:19:35;17.60;99.90
44823;DHT22;51097;51.984;5.650;2023-05-10T01:25:11;17.50;99.90
44823;DHT22;51097;51.984;5.650;2023-05-10T01:27:55;17.50;99.90
44823;DHT22;51097;51.984;5.650;2023-05-10T01:36:15;17.50;99.90
44823;DHT22;51097;51.984;5.650;2023-05-10T01:38:51;17.50;99.90
44823;DHT22;51097;51.984;5.650;2023-05-10T01:43:55;17.60;99.90
44823;DHT22;51097;51.984;5.650;2023-05-10T01:46:35;17.50;99.90
44823;DHT22;51097;51.984;5.650;2023-05-10T01:49:02;17.50;99.90
44823;DHT22;51097;51.984;5.650;2023-05-10T01:51:40;17.40;99.90
44823;DHT22;51097;51.984;5.650;2023-05-10T01:54:12;17.40;99.90
44823;DHT22;51097;51.984;5.650;2023-05-10T01:56:39;17.40;99.90
44823;DHT22;51097;51.984;5.650;2023-05-10T01:59:12;17.40;99.90
44823;DHT22;51097;51.984;5.650;2023-05-10T02:01:40;17.40;99.90
44823;DHT22;51097;51.984;5.650;2023-05-10T02:04:07;17.50;99.90
44823;DHT22;51097;51.984;5.650;2023-05-10T02:06:34;17.60;99.90
44823;DHT22;51097;51.984;5.650;2023-05-10T02:09:01;17.50;99.90
44823;DHT22;51097;51.984;5.650;2023-05-10T02:11:29;17.60;99.90
44823;DHT22;51097;51.984;5.650;2023-05-10T02:13:57;17.60;99.90
44823;DHT22;51097;51.984;5.650;2023-05-10T02:16:24;17.50;99.90
44823;DHT22;51097;51.984;5.650;2023-05-10T02:18:52;17.60;99.90
44823;DHT22;51097;51.984;5.650;2023-05-10T02:21:19;17.60;99.90
44823;DHT22;51097;51.984;5.650;2023-05-10T02:23:46;17.60;99.90
44823;DHT22;51097;51.984;5.650;2023-05-10T02:26:14;17.60;99.90
44823;DHT22;51097;51.984;5.650;2023-05-10T02:28:40;17.50;99.90
44823;DHT22;51097;51.984;5.650;2023-05-10T02:31:07;17.50;99.90
44823;DHT22;51097;51.984;5.650;2023-05-10T02:33:35;17.50;99.90
44823;DHT22;51097;51.984;5.650;2023-05-10T02:36:02;17.60;99.90
44823;DHT22;51097;51.984;5.650;2023-05-10T02:38:28;17.50;99.90
44823;DHT22;51097;51.984;5.650;2023-05-10T02:40:56;17.50;99.90
44823;DHT22;51097;51.984;5.650;2023-05-10T02:43:23;17.50;99.90
44823;DHT22;51097;51.984;5.650;2023-05-10T02:45:49;17.60;99.90
44823;DHT22;51097;51.984;5.650;2023-05-10T02:48:15;17.60;99.90
44823;DHT22;51097;51.984;5.650;2023-05-10T02:50:44;17.50;99.90
44823;DHT22;51097;51.984;5.650;2023-05-10T02:53:16;17.50;99.90
44823;DHT22;51097;51.984;5.650;2023-05-10T02:55:45;17.50;99.90
44823;DHT22;51097;51.984;5.650;2023-05-10T02:58:13;17.50;99.90
44823;DHT22;51097;51.984;5.650;2023-05-10T03:00:39;17.50;99.90
44823;DHT22;51097;51.984;5.650;2023-05-10T03:03:05;17.30;99.90
44823;DHT22;51097;51.984;5.650;2023-05-10T03:05:30;17.30;99.90
44823;DHT22;51097;51.984;5.650;2023-05-10T03:07:56;17.30;99.90
44823;DHT22;51097;51.984;5.650;2023-05-10T03:10:27;17.30;99.90
44823;DHT22;51097;51.984;5.650;2023-05-10T03:18:10;17.30;99.90
44823;DHT22;51097;51.984;5.650;2023-05-10T03:20:51;17.20;99.90
44823;DHT22;51097;51.984;5.650;2023-05-10T03:25:44;17.30;99.90
44823;DHT22;51097;51.984;5.650;2023-05-10T03:28:13;17.20;99.90
44823;DHT22;51097;51.984;5.650;2023-05-10T03:30:41;17.30;99.90
44823;DHT22;51097;51.984;5.650;2023-05-10T03:33:07;17.30;99.90
44823;DHT22;51097;51.984;5.650;2023-05-10T03:35:32;17.20;99.90
44823;DHT22;51097;51.984;5.650;2023-05-10T03:37:58;17.20;99.90
44823;DHT22;51097;51.984;5.650;2023-05-10T03:40:24;17.30;99.90
44823;DHT22;51097;51.984;5.650;2023-05-10T03:42:51;17.20;99.90
44823;DHT22;51097;51.984;5.650;2023-05-10T03:45:16;17.20;99.90
44823;DHT22;51097;51.984;5.650;2023-05-10T03:47:42;17.30;99.90
44823;DHT22;51097;51.984;5.650;2023-05-10T03:50:07;17.20;99.90
44823;DHT22;51097;51.984;5.650;2023-05-10T03:52:33;17.10;99.90
44823;DHT22;51097;51.984;5.650;2023-05-10T03:54:59;17.20;99.90
44823;DHT22;51097;51.984;5.650;2023-05-10T03:57:24;17.20;99.90
44823;DHT22;51097;51.984;5.650;2023-05-10T03:59:50;17.10;99.90
44823;DHT22;51097;51.984;5.650;2023-05-10T04:02:15;17.00;99.90
44823;DHT22;51097;51.984;5.650;2023-05-10T04:04:41;17.00;99.90
44823;DHT22;51097;51.984;5.650;2023-05-10T04:07:07;17.10;99.90
44823;DHT22;51097;51.984;5.650;2023-05-10T04:09:32;17.00;99.90
44823;DHT22;51097;51.984;5.650;2023-05-10T04:11:59;17.10;99.90
44823;DHT22;51097;51.984;5.650;2023-05-10T04:14:25;16.90;99.90
44823;DHT22;51097;51.984;5.650;2023-05-10T04:16:51;17.10;99.90
44823;DHT22;51097;51.984;5.650;2023-05-10T04:19:16;17.10;99.90
44823;DHT22;51097;51.984;5.650;2023-05-10T04:21:42;17.10;99.90
44823;DHT22;51097;51.984;5.650;2023-05-10T04:24:08;17.10;99.90
44823;DHT22;51097;51.984;5.650;2023-05-10T04:26:33;17.20;99.90
44823;DHT22;51097;51.984;5.650;2023-05-10T04:28:59;17.10;99.90
44823;DHT22;51097;51.984;5.650;2023-05-10T04:31:24;17.10;99.90
44823;DHT22;51097;51.984;5.650;2023-05-10T04:33:50;17.20;99.90
44823;DHT22;51097;51.984;5.650;2023-05-10T04:36:16;17.20;99.90
44823;DHT22;51097;51.984;5.650;2023-05-10T04:38:41;17.20;99.90
44823;DHT22;51097;51.984;5.650;2023-05-10T04:41:08;17.10;99.90
44823;DHT22;51097;51.984;5.650;2023-05-10T04:43:35;17.30;99.90
44823;DHT22;51097;51.984;5.650;2023-05-10T04:46:01;17.30;99.90
44823;DHT22;51097;51.984;5.650;2023-05-10T04:48:26;17.20;99.90
44823;DHT22;51097;51.984;5.650;2023-05-10T04:50:54;17.20;99.90
44823;DHT22;51097;51.984;5.650;2023-05-10T04:53:20;17.30;99.90
44823;DHT22;51097;51.984;5.650;2023-05-10T04:55:46;17.30;99.90
44823;DHT22;51097;51.984;5.650;2023-05-10T04:58:15;17.30;99.90
44823;DHT22;51097;51.984;5.650;2023-05-10T05:00:40;17.20;99.90
44823;DHT22;51097;51.984;5.650;2023-05-10T05:03:06;17.30;99.90
44823;DHT22;51097;51.984;5.650;2023-05-10T05:05:32;17.30;99.90
44823;DHT22;51097;51.984;5.650;2023-05-10T05:07:58;17.20;99.90
44823;DHT22;51097;51.984;5.650;2023-05-10T05:10:23;17.30;99.90
44823;DHT22;51097;51.984;5.650;2023-05-10T05:12:49;17.30;99.90
44823;DHT22;51097;51.984;5.650;2023-05-10T05:15:14;17.30;99.90
44823;DHT22;51097;51.984;5.650;2023-05-10T05:17:42;17.30;99.90
44823;DHT22;51097;51.984;5.650;2023-05-10T05:20:08;17.30;99.90
44823;DHT22;51097;51.984;5.650;2023-05-10T05:22:35;17.40;99.90
44823;DHT22;51097;51.984;5.650;2023-05-10T05:25:00;17.40;99.90
44823;DHT22;51097;51.984;5.650;2023-05-10T05:27:27;17.50;99.90
44823;DHT22;51097;51.984;5.650;2023-05-10T05:29:54;17.50;99.90
44823;DHT22;51097;51.984;5.650;2023-05-10T05:32:19;17.40;99.90
44823;DHT22;51097;51.984;5.650;2023-05-10T05:34:45;17.50;99.90
44823;DHT22;51097;51.984;5.650;2023-05-10T05:37:19;17.50;99.90
44823;DHT22;51097;51.984;5.650;2023-05-10T05:39:45;17.50;99.90
44823;DHT22;51097;51.984;5.650;2023-05-10T05:42:12;17.50;99.90
44823;DHT22;51097;51.984;5.650;2023-05-10T05:44:38;17.60;99.90
44823;DHT22;51097;51.984;5.650;2023-05-10T05:47:04;17.60;99.90
44823;DHT22;51097;51.984;5.650;2023-05-10T05:49:30;17.50;99.90
44823;DHT22;51097;51.984;5.650;2023-05-10T05:52:03;17.50;99.90
44823;DHT22;51097;51.984;5.650;2023-05-10T05:54:29;17.60;99.90
44823;DHT22;51097;51.984;5.650;2023-05-10T05:56:56;17.60;99.90
44823;DHT22;51097;51.984;5.650;2023-05-10T05:59:22;17.60;99.90
44823;DHT22;51097;51.984;5.650;2023-05-10T06:01:47;17.60;99.90
44823;DHT22;51097;51.984;5.650;2023-05-10T06:04:13;17.60;99.90
44823;DHT22;51097;51.984;5.650;2023-05-10T06:06:38;17.70;99.90
44823;DHT22;51097;51.984;5.650;2023-05-10T06:09:04;17.70;99.90
44823;DHT22;51097;51.984;5.650;2023-05-10T06:11:29;17.70;99.90
44823;DHT22;51097;51.984;5.650;2023-05-10T06:13:57;17.70;99.90
44823;DHT22;51097;51.984;5.650;2023-05-10T06:16:23;17.80;99.90
44823;DHT22;51097;51.984;5.650;2023-05-10T06:18:49;17.70;99.90
44823;DHT22;51097;51.984;5.650;2023-05-10T06:21:14;17.70;99.90
44823;DHT22;51097;51.984;5.650;2023-05-10T06:23:41;17.80;99.90
44823;DHT22;51097;51.984;5.650;2023-05-10T06:26:07;17.70;99.90
44823;DHT22;51097;51.984;5.650;2023-05-10T06:28:32;17.90;99.90
44823;DHT22;51097;51.984;5.650;2023-05-10T06:30:59;17.70;99.90
44823;DHT22;51097;51.984;5.650;2023-05-10T06:33:24;17.80;99.90
44823;DHT22;51097;51.984;5.650;2023-05-10T06:35:50;17.80;99.90
44823;DHT22;51097;51.984;5.650;2023-05-10T06:38:15;17.70;99.90
44823;DHT22;51097;51.984;5.650;2023-05-10T06:40:42;17.70;99.90
44823;DHT22;51097;51.984;5.650;2023-05-10T06:43:07;17.70;99.90
44823;DHT22;51097;51.984;5.650;2023-05-10T06:45:33;17.80;99.90
44823;DHT22;51097;51.984;5.650;2023-05-10T06:47:58;17.70;99.90
44823;DHT22;51097;51.984;5.650;2023-05-10T06:50:24;17.70;99.90
44823;DHT22;51097;51.984;5.650;2023-05-10T06:52:50;17.80;99.90
44823;DHT22;51097;51.984;5.650;2023-05-10T06:55:16;17.70;99.90
44823;DHT22;51097;51.984;5.650;2023-05-10T06:57:41;17.80;99.90
44823;DHT22;51097;51.984;5.650;2023-05-10T07:00:07;17.90;99.90
44823;DHT22;51097;51.984;5.650;2023-05-10T07:02:34;17.90;99.90
44823;DHT22;51097;51.984;5.650;2023-05-10T07:05:00;17.80;99.90
44823;DHT22;51097;51.984;5.650;2023-05-10T07:07:26;17.80;99.90
44823;DHT22;51097;51.984;5.650;2023-05-10T07:09:51;17.90;99.90
44823;DHT22;51097;51.984;5.650;2023-05-10T07:12:17;18.00;99.90
44823;DHT22;51097;51.984;5.650;2023-05-10T07:14:43;17.90;99.90
44823;DHT22;51097;51.984;5.650;2023-05-10T07:17:08;17.90;99.90
44823;DHT22;51097;51.984;5.650;2023-05-10T07:19:34;17.90;99.90
44823;DHT22;51097;51.984;5.650;2023-05-10T07:22:00;17.90;99.90
44823;DHT22;51097;51.984;5.650;2023-05-10T07:24:26;18.10;99.90
44823;DHT22;51097;51.984;5.650;2023-05-10T07:26:51;17.90;99.90
44823;DHT22;51097;51.984;5.650;2023-05-10T07:29:17;18.10;99.90
44823;DHT22;51097;51.984;5.650;2023-05-10T07:31:42;18.10;99.90
44823;DHT22;51097;51.984;5.650;2023-05-10T07:34:08;18.10;99.90
44823;DHT22;51097;51.984;5.650;2023-05-10T07:36:34;18.20;99.90
44823;DHT22;51097;51.984;5.650;2023-05-10T07:39:00;18.10;99.90
44823;DHT22;51097;51.984;5.650;2023-05-10T07:41:26;18.20;99.90
44823;DHT22;51097;51.984;5.650;2023-05-10T07:43:52;18.20;99.90
44823;DHT22;51097;51.984;5.650;2023-05-10T07:46:17;18.40;99.90
44823;DHT22;51097;51.984;5.650;2023-05-10T07:48:45;18.50;99.90
44823;DHT22;51097;51.984;5.650;2023-05-10T07:51:10;18.60;99.90
44823;DHT22;51097;51.984;5.650;2023-05-10T07:53:37;18.70;99.90
44823;DHT22;51097;51.984;5.650;2023-05-10T07:56:27;18.80;99.90
44823;DHT22;51097;51.984;5.650;2023-05-10T07:58:55;18.80;99.90
44823;DHT22;51097;51.984;5.650;2023-05-10T08:01:21;18.70;99.90
44823;DHT22;51097;51.984;5.650;2023-05-10T08:03:47;18.70;99.90
44823;DHT22;51097;51.984;5.650;2023-05-10T08:06:14;18.80;99.90
44823;DHT22;51097;51.984;5.650;2023-05-10T08:08:40;18.90;99.90
44823;DHT22;51097;51.984;5.650;2023-05-10T08:11:06;18.90;99.90
44823;DHT22;51097;51.984;5.650;2023-05-10T08:13:32;18.90;99.90
44823;DHT22;51097;51.984;5.650;2023-05-10T08:15:57;18.90;99.90
44823;DHT22;51097;51.984;5.650;2023-05-10T08:18:23;18.90;99.90
44823;DHT22;51097;51.984;5.650;2023-05-10T08:20:48;18.80;99.90
44823;DHT22;51097;51.984;5.650;2023-05-10T08:23:14;18.80;99.90
44823;DHT22;51097;51.984;5.650;2023-05-10T08:25:40;18.80;99.90
44823;DHT22;51097;51.984;5.650;2023-05-10T08:28:05;18.80;99.90
44823;DHT22;51097;51.984;5.650;2023-05-10T08:30:31;19.10;99.90
44823;DHT22;51097;51.984;5.650;2023-05-10T08:32:56;19.00;99.90
44823;DHT22;51097;51.984;5.650;2023-05-10T08:35:22;19.10;99.90
44823;DHT22;51097;51.984;5.650;2023-05-10T08:37:48;19.30;99.90
44823;DHT22;51097;51.984;5.650;2023-05-10T08:40:14;19.40;99.90
44823;DHT22;51097;51.984;5.650;2023-05-10T08:42:43;19.50;99.90
44823;DHT22;51097;51.984;5.650;2023-05-10T08:45:10;19.70;99.90
44823;DHT22;51097;51.984;5.650;2023-05-10T08:47:37;19.70;99.90
44823;DHT22;51097;51.984;5.650;2023-05-10T08:50:04;19.80;99.90
44823;DHT22;51097;51.984;5.650;2023-05-10T08:52:30;20.00;99.90
44823;DHT22;51097;51.984;5.650;2023-05-10T08:54:57;20.30;99.90
44823;DHT22;51097;51.984;5.650;2023-05-10T08:57:23;20.50;99.90
44823;DHT22;51097;51.984;5.650;2023-05-10T08:59:49;20.60;99.90
44823;DHT22;51097;51.984;5.650;2023-05-10T09:02:14;20.70;99.90
44823;DHT22;51097;51.984;5.650;2023-05-10T09:04:41;21.00;99.90
44823;DHT22;51097;51.984;5.650;2023-05-10T09:07:07;21.10;99.90
44823;DHT22;51097;51.984;5.650;2023-05-10T09:09:33;21.50;99.90
44823;DHT22;51097;51.984;5.650;2023-05-10T09:11:59;21.50;99.90
44823;DHT22;51097;51.984;5.650;2023-05-10T09:14:25;21.60;99.90
44823;DHT22;51097;51.984;5.650;2023-05-10T09:16:52;21.70;99.90
44823;DHT22;51097;51.984;5.650;2023-05-10T09:19:19;21.80;99.90
44823;DHT22;51097;51.984;5.650;2023-05-10T09:21:44;22.00;99.90
44823;DHT22;51097;51.984;5.650;2023-05-10T09:24:11;21.90;99.90
44823;DHT22;51097;51.984;5.650;2023-05-10T09:26:46;22.10;99.90
44823;DHT22;51097;51.984;5.650;2023-05-10T09:29:13;22.10;99.90
44823;DHT22;51097;51.984;5.650;2023-05-10T09:31:48;22.00;99.90
44823;DHT22;51097;51.984;5.650;2023-05-10T09:34:21;22.10;99.90
44823;DHT22;51097;51.984;5.650;2023-05-10T09:36:57;22.20;99.90
44823;DHT22;51097;51.984;5.650;2023-05-10T09:39:36;22.20;99.90
44823;DHT22;51097;51.984;5.650;2023-05-10T09:42:05;22.20;99.90
44823;DHT22;51097;51.984;5.650;2023-05-10T09:44:32;22.30;99.90
44823;DHT22;51097;51.984;5.650;2023-05-10T09:46:59;22.30;99.90
44823;DHT22;51097;51.984;5.650;2023-05-10T09:49:24;22.30;99.90
44823;DHT22;51097;51.984;5.650;2023-05-10T09:52:04;22.30;99.90
44823;DHT22;51097;51.984;5.650;2023-05-10T09:54:30;22.50;99.90
44823;DHT22;51097;51.984;5.650;2023-05-10T09:56:56;22.50;99.90
44823;DHT22;51097;51.984;5.650;2023-05-10T09:59:21;22.60;99.90
44823;DHT22;51097;51.984;5.650;2023-05-10T10:01:50;22.60;99.90
44823;DHT22;51097;51.984;5.650;2023-05-10T10:04:17;22.60;99.90
44823;DHT22;51097;51.984;5.650;2023-05-10T10:06:42;22.80;99.90
44823;DHT22;51097;51.984;5.650;2023-05-10T10:09:09;22.70;99.90
44823;DHT22;51097;51.984;5.650;2023-05-10T10:11:38;22.90;99.90
44823;DHT22;51097;51.984;5.650;2023-05-10T10:14:04;22.80;99.90
44823;DHT22;51097;51.984;5.650;2023-05-10T10:16:31;22.90;99.90
44823;DHT22;51097;51.984;5.650;2023-05-10T10:18:57;22.90;99.90
44823;DHT22;51097;51.984;5.650;2023-05-10T10:21:23;22.90;99.90
44823;DHT22;51097;51.984;5.650;2023-05-10T10:23:48;23.00;99.90
44823;DHT22;51097;51.984;5.650;2023-05-10T10:26:16;23.00;99.90
44823;DHT22;51097;51.984;5.650;2023-05-10T10:28:50;23.00;99.90
44823;DHT22;51097;51.984;5.650;2023-05-10T10:31:28;23.10;99.90
44823;DHT22;51097;51.984;5.650;2023-05-10T10:34:05;23.00;99.90
44823;DHT22;51097;51.984;5.650;2023-05-10T10:36:32;23.10;99.90
44823;DHT22;51097;51.984;5.650;2023-05-10T10:39:05;23.10;99.90
44823;DHT22;51097;51.984;5.650;2023-05-10T10:41:38;23.20;99.90
44823;DHT22;51097;51.984;5.650;2023-05-10T10:44:33;23.20;99.90
44823;DHT22;51097;51.984;5.650;2023-05-10T11:02:46;23.60;99.90
44823;DHT22;51097;51.984;5.650;2023-05-10T11:07:55;23.60;99.90
44823;DHT22;51097;51.984;5.650;2023-05-10T11:10:22;23.60;99.90
44823;DHT22;51097;51.984;5.650;2023-05-10T11:13:08;23.50;99.90
44823;DHT22;51097;51.984;5.650;2023-05-10T11:15:34;23.30;99.90
44823;DHT22;51097;51.984;5.650;2023-05-10T11:18:16;23.30;99.90
44823;DHT22;51097;51.984;5.650;2023-05-10T11:20:43;23.40;99.90
44823;DHT22;51097;51.984;5.650;2023-05-10T11:23:13;23.40;99.90
44823;DHT22;51097;51.984;5.650;2023-05-10T11:25:45;23.40;99.90
44823;DHT22;51097;51.984;5.650;2023-05-10T11:28:11;23.40;99.90
44823;DHT22;51097;51.984;5.650;2023-05-10T11:30:39;23.30;99.90
44823;DHT22;51097;51.984;5.650;2023-05-10T11:33:05;23.20;99.90
44823;DHT22;51097;51.984;5.650;2023-05-10T11:35:37;23.30;99.90
44823;DHT22;51097;51.984;5.650;2023-05-10T11:38:08;23.40;99.90
44823;DHT22;51097;51.984;5.650;2023-05-10T11:40:35;23.50;99.90
44823;DHT22;51097;51.984;5.650;2023-05-10T11:43:01;23.60;99.90
44823;DHT22;51097;51.984;5.650;2023-05-10T11:45:27;23.70;99.90
44823;DHT22;51097;51.984;5.650;2023-05-10T11:47:54;23.90;99.90
44823;DHT22;51097;51.984;5.650;2023-05-10T11:50:20;23.90;99.90
44823;DHT22;51097;51.984;5.650;2023-05-10T11:52:50;24.00;99.90
44823;DHT22;51097;51.984;5.650;2023-05-10T11:55:16;24.00;99.90
44823;DHT22;51097;51.984;5.650;2023-05-10T11:57:42;24.20;99.90
44823;DHT22;51097;51.984;5.650;2023-05-10T12:00:10;24.50;99.90
44823;DHT22;51097;51.984;5.650;2023-05-10T12:02:36;24.40;99.90
44823;DHT22;51097;51.984;5.650;2023-05-10T12:05:03;24.50;99.90
44823;DHT22;51097;51.984;5.650;2023-05-10T12:07:29;24.60;99.90
44823;DHT22;51097;51.984;5.650;2023-05-10T12:10:14;24.70;99.90
44823;DHT22;51097;51.984;5.650;2023-05-10T12:12:45;24.80;99.90
44823;DHT22;51097;51.984;5.650;2023-05-10T12:15:17;25.00;99.90
44823;DHT22;51097;51.984;5.650;2023-05-10T12:17:44;25.10;99.90
44823;DHT22;51097;51.984;5.650;2023-05-10T12:20:28;25.30;99.90
44823;DHT22;51097;51.984;5.650;2023-05-10T12:22:58;25.50;99.90
44823;DHT22;51097;51.984;5.650;2023-05-10T12:25:29;25.50;99.90
44823;DHT22;51097;51.984;5.650;2023-05-10T12:27:57;25.50;99.90
44823;DHT22;51097;51.984;5.650;2023-05-10T12:30:27;25.50;99.90
44823;DHT22;51097;51.984;5.650;2023-05-10T12:32:58;25.60;99.90
44823;DHT22;51097;51.984;5.650;2023-05-10T12:35:24;25.80;99.90
44823;DHT22;51097;51.984;5.650;2023-05-10T12:37:53;26.00;99.90
44823;DHT22;51097;51.984;5.650;2023-05-10T12:40:18;26.10;99.90
44823;DHT22;51097;51.984;5.650;2023-05-10T12:42:45;26.20;99.90
44823;DHT22;51097;51.984;5.650;2023-05-10T12:45:11;26.30;99.90
44823;DHT22;51097;51.984;5.650;2023-05-10T12:47:37;26.40;99.90
44823;DHT22;51097;51.984;5.650;2023-05-10T12:50:03;26.40;99.90
44823;DHT22;51097;51.984;5.650;2023-05-10T12:52:29;26.40;99.90
44823;DHT22;51097;51.984;5.650;2023-05-10T12:54:54;26.50;99.90
44823;DHT22;51097;51.984;5.650;2023-05-10T12:57:20;26.40;99.90
44823;DHT22;51097;51.984;5.650;2023-05-10T12:59:46;26.50;99.90
44823;DHT22;51097;51.984;5.650;2023-05-10T13:02:11;26.50;99.90
44823;DHT22;51097;51.984;5.650;2023-05-10T13:04:37;26.30;99.90
44823;DHT22;51097;51.984;5.650;2023-05-10T13:07:06;26.10;99.90
44823;DHT22;51097;51.984;5.650;2023-05-10T13:09:31;25.90;99.90
44823;DHT22;51097;51.984;5.650;2023-05-10T13:11:57;25.70;99.90
44823;DHT22;51097;51.984;5.650;2023-05-10T13:14:22;25.30;99.90
44823;DHT22;51097;51.984;5.650;2023-05-10T13:16:48;24.90;99.90
44823;DHT22;51097;51.984;5.650;2023-05-10T13:19:14;24.60;99.90
44823;DHT22;51097;51.984;5.650;2023-05-10T13:21:39;24.20;99.90
44823;DHT22;51097;51.984;5.650;2023-05-10T13:24:07;23.70;99.90
44823;DHT22;51097;51.984;5.650;2023-05-10T13:26:32;23.60;99.90
44823;DHT22;51097;51.984;5.650;2023-05-10T13:28:58;23.40;99.90
44823;DHT22;51097;51.984;5.650;2023-05-10T13:31:24;23.00;99.90
44823;DHT22;51097;51.984;5.650;2023-05-10T13:33:49;22.80;99.90
44823;DHT22;51097;51.984;5.650;2023-05-10T13:36:15;22.60;99.90
44823;DHT22;51097;51.984;5.650;2023-05-10T13:38:40;22.50;99.90
44823;DHT22;51097;51.984;5.650;2023-05-10T13:41:06;22.20;99.90
44823;DHT22;51097;51.984;5.650;2023-05-10T13:43:31;22.00;99.90
44823;DHT22;51097;51.984;5.650;2023-05-10T13:45:57;21.70;99.90
44823;DHT22;51097;51.984;5.650;2023-05-10T13:48:23;21.60;99.90
44823;DHT22;51097;51.984;5.650;2023-05-10T13:50:48;21.20;99.90
44823;DHT22;51097;51.984;5.650;2023-05-10T13:53:14;21.00;99.90
44823;DHT22;51097;51.984;5.650;2023-05-10T13:55:39;21.00;99.90
44823;DHT22;51097;51.984;5.650;2023-05-10T13:58:05;20.90;99.90
44823;DHT22;51097;51.984;5.650;2023-05-10T14:00:30;20.70;99.90
44823;DHT22;51097;51.984;5.650;2023-05-10T14:02:56;20.70;99.90
44823;DHT22;51097;51.984;5.650;2023-05-10T14:05:22;20.70;99.90
44823;DHT22;51097;51.984;5.650;2023-05-10T14:07:49;20.50;99.90
44823;DHT22;51097;51.984;5.650;2023-05-10T14:10:15;20.50;99.90
44823;DHT22;51097;51.984;5.650;2023-05-10T14:12:41;20.40;99.90
44823;DHT22;51097;51.984;5.650;2023-05-10T14:15:07;20.40;99.90
44823;DHT22;51097;51.984;5.650;2023-05-10T14:17:32;20.40;99.90
44823;DHT22;51097;51.984;5.650;2023-05-10T14:19:58;20.20;99.90
44823;DHT22;51097;51.984;5.650;2023-05-10T14:22:24;20.30;99.90
44823;DHT22;51097;51.984;5.650;2023-05-10T14:24:49;20.30;99.90
44823;DHT22;51097;51.984;5.650;2023-05-10T14:27:15;20.30;99.90
44823;DHT22;51097;51.984;5.650;2023-05-10T14:29:41;20.30;99.90
44823;DHT22;51097;51.984;5.650;2023-05-10T14:32:07;20.00;99.90
44823;DHT22;51097;51.984;5.650;2023-05-10T14:34:33;20.10;99.90
44823;DHT22;51097;51.984;5.650;2023-05-10T14:36:58;20.00;99.90
44823;DHT22;51097;51.984;5.650;2023-05-10T14:39:24;19.90;99.90
44823;DHT22;51097;51.984;5.650;2023-05-10T14:41:50;20.00;99.90
44823;DHT22;51097;51.984;5.650;2023-05-10T14:44:16;19.90;99.90
44823;DHT22;51097;51.984;5.650;2023-05-10T14:46:42;19.90;99.90
44823;DHT22;51097;51.984;5.650;2023-05-10T14:49:07;19.90;99.90
44823;DHT22;51097;51.984;5.650;2023-05-10T14:51:33;20.00;99.90
44823;DHT22;51097;51.984;5.650;2023-05-10T14:53:59;20.00;99.90
44823;DHT22;51097;51.984;5.650;2023-05-10T14:56:24;20.00;99.90
44823;DHT22;51097;51.984;5.650;2023-05-10T14:58:51;20.20;99.90
44823;DHT22;51097;51.984;5.650;2023-05-10T15:01:16;20.30;99.90
44823;DHT22;51097;51.984;5.650;2023-05-10T15:03:42;20.40;99.90
44823;DHT22;51097;51.984;5.650;2023-05-10T15:06:08;20.50;99.90
44823;DHT22;51097;51.984;5.650;2023-05-10T15:08:34;20.40;99.90
44823;DHT22;51097;51.984;5.650;2023-05-10T15:10:59;20.60;99.90
44823;DHT22;51097;51.984;5.650;2023-05-10T15:13:25;20.60;99.90
44823;DHT22;51097;51.984;5.650;2023-05-10T15:15:51;20.70;99.90
44823;DHT22;51097;51.984;5.650;2023-05-10T15:18:16;20.70;99.90
44823;DHT22;51097;51.984;5.650;2023-05-10T15:20:42;20.90;99.90
44823;DHT22;51097;51.984;5.650;2023-05-10T15:23:07;20.90;99.90
44823;DHT22;51097;51.984;5.650;2023-05-10T15:25:33;21.10;99.90
44823;DHT22;51097;51.984;5.650;2023-05-10T15:28:03;21.30;99.90
44823;DHT22;51097;51.984;5.650;2023-05-10T15:30:29;21.30;99.90
44823;DHT22;51097;51.984;5.650;2023-05-10T15:32:55;21.60;99.90
44823;DHT22;51097;51.984;5.650;2023-05-10T15:35:20;21.70;99.90
44823;DHT22;51097;51.984;5.650;2023-05-10T15:37:47;21.80;99.90
44823;DHT22;51097;51.984;5.650;2023-05-10T15:40:13;21.90;99.90
44823;DHT22;51097;51.984;5.650;2023-05-10T15:42:39;22.10;99.90
44823;DHT22;51097;51.984;5.650;2023-05-10T15:45:05;22.30;99.90
44823;DHT22;51097;51.984;5.650;2023-05-10T15:47:31;22.20;99.90
44823;DHT22;51097;51.984;5.650;2023-05-10T15:49:57;22.50;99.90
44823;DHT22;51097;51.984;5.650;2023-05-10T15:52:22;22.60;99.90
44823;DHT22;51097;51.984;5.650;2023-05-10T15:54:49;22.70;99.90
44823;DHT22;51097;51.984;5.650;2023-05-10T15:57:15;22.90;99.90
44823;DHT22;51097;51.984;5.650;2023-05-10T15:59:40;23.00;99.90
44823;DHT22;51097;51.984;5.650;2023-05-10T16:02:08;23.20;99.90
44823;DHT22;51097;51.984;5.650;2023-05-10T16:04:35;23.30;99.90
44823;DHT22;51097;51.984;5.650;2023-05-10T16:07:01;23.50;99.90